Time;durP1;ratioP1;P1;durP2;ratioP2;P2;SDS_P1;SDS_P2;PMS_P1;PMS_P2;Temp;Humidity;BMP_temperature;BMP_pressure;BME280_temperature;BME280_humidity;BME280_pressure;Samples;Min_cycle;Max_cycle;Signal;HPM_P1;HPM_P2
2024/02/10 00:01:38;;;;;;;17.20;13.80;;;;;;;;;;5113034;28;20441;-66
2024/02/10 00:04:06;;;;;;;15.57;13.50;;;;;;;;;;5113114;28;20438;-66
2024/02/10 00:06:36;;;;;;;16.20;13.47;;;;;;;;;;5113502;28;20445;-66
2024/02/10 00:09:06;;;;;;;19.53;14.10;;;;;;;;;;5113398;28;20522;-66
2024/02/10 00:11:33;;;;;;;15.47;13.77;;;;;;;;;;5113219;28;20533;-66
2024/02/10 00:14:00;;;;;;;16.77;14.23;;;;;;;;;;5113094;28;20517;-66
2024/02/10 00:16:28;;;;;;;14.57;13.03;;;;;;;;;;5113598;28;20875;-66
2024/02/10 00:18:57;;;;;;;14.97;13.07;;;;;;;;;;5113197;28;20832;-66
2024/02/10 00:21:24;;;;;;;15.30;12.70;;;;;;;;;;5113043;28;20940;-66
2024/02/10 00:23:51;;;;;;;16.77;12.87;;;;;;;;;;5112984;28;20481;-66
2024/02/10 00:26:22;;;;;;;15.83;12.30;;;;;;;;;;5113033;28;20532;-66
2024/02/10 00:28:49;;;;;;;16.70;12.90;;;;;;;;;;5112899;28;20446;-66
2024/02/10 00:31:16;;;;;;;14.40;13.00;;;;;;;;;;5113199;28;20484;-66
2024/02/10 00:33:46;;;;;;;17.00;13.93;;;;;;;;;;5112776;28;20466;-66
2024/02/10 00:36:13;;;;;;;17.27;13.97;;;;;;;;;;5113024;28;20528;-66
2024/02/10 00:38:42;;;;;;;16.03;13.67;;;;;;;;;;5112898;28;20532;-66
2024/02/10 00:41:09;;;;;;;16.97;13.80;;;;;;;;;;5112739;28;20441;-66
2024/02/10 00:43:42;;;;;;;16.17;12.13;;;;;;;;;;5112936;28;20484;-66
2024/02/10 00:46:09;;;;;;;13.90;12.40;;;;;;;;;;5112932;28;20477;-66
2024/02/10 00:48:36;;;;;;;14.77;12.07;;;;;;;;;;5112853;28;20441;-66
2024/02/10 00:51:05;;;;;;;14.80;10.67;;;;;;;;;;5112841;28;20519;-66
2024/02/10 00:53:32;;;;;;;14.60;12.07;;;;;;;;;;5112757;28;20940;-66
2024/02/10 00:55:59;;;;;;;13.13;11.23;;;;;;;;;;5112721;28;20483;-66
2024/02/10 00:58:26;;;;;;;12.33;11.10;;;;;;;;;;5115552;28;20905;-66
2024/02/10 01:00:53;;;;;;;14.17;11.10;;;;;;;;;;5116480;28;20525;-66
2024/02/10 01:03:22;;;;;;;17.23;10.87;;;;;;;;;;5116317;28;20485;-66
2024/02/10 01:05:50;;;;;;;14.20;10.83;;;;;;;;;;5116222;28;20533;-66
2024/02/10 01:08:17;;;;;;;13.23;11.07;;;;;;;;;;5116134;28;20438;-66
2024/02/10 01:10:45;;;;;;;14.13;12.23;;;;;;;;;;5116367;28;20528;-66
2024/02/10 01:13:12;;;;;;;11.87;10.40;;;;;;;;;;5116260;28;20441;-66
2024/02/10 01:15:39;;;;;;;11.90;10.57;;;;;;;;;;5116081;28;20445;-66
2024/02/10 01:18:09;;;;;;;12.37;9.53;;;;;;;;;;5116095;28;20445;-66
2024/02/10 01:20:36;;;;;;;13.10;9.30;;;;;;;;;;5115986;28;20824;-66
2024/02/10 01:23:03;;;;;;;15.37;11.27;;;;;;;;;;5115698;28;20477;-66
2024/02/10 01:25:31;;;;;;;11.30;9.43;;;;;;;;;;5115993;28;20537;-66
2024/02/10 01:27:58;;;;;;;11.17;9.73;;;;;;;;;;5116069;28;20450;-66
2024/02/10 01:30:26;;;;;;;12.23;10.60;;;;;;;;;;5115978;28;20485;-66
2024/02/10 01:32:55;;;;;;;11.30;10.10;;;;;;;;;;5115559;28;20832;-66
2024/02/10 01:35:23;;;;;;;17.70;11.07;;;;;;;;;;5115682;28;20849;-66
2024/02/10 01:37:50;;;;;;;11.43;10.07;;;;;;;;;;5115799;28;20514;-66
2024/02/10 01:40:17;;;;;;;12.67;10.33;;;;;;;;;;5115725;28;20536;-66
2024/02/10 01:42:44;;;;;;;11.67;10.10;;;;;;;;;;5115583;28;20475;-66
2024/02/10 01:45:13;;;;;;;11.40;10.20;;;;;;;;;;5115463;28;20446;-66
2024/02/10 01:47:41;;;;;;;10.13;9.13;;;;;;;;;;5115468;28;20441;-66
2024/02/10 01:50:09;;;;;;;10.30;8.77;;;;;;;;;;5115306;28;20909;-66
2024/02/10 01:52:37;;;;;;;8.53;7.67;;;;;;;;;;5115465;28;20580;-66
2024/02/10 01:55:05;;;;;;;9.73;7.50;;;;;;;;;;5115403;28;20532;-66
2024/02/10 01:57:32;;;;;;;7.43;6.73;;;;;;;;;;5115343;28;20437;-66
2024/02/10 02:00:01;;;;;;;8.17;6.97;;;;;;;;;;5115244;28;20449;-66
2024/02/10 02:02:30;;;;;;;8.87;7.97;;;;;;;;;;5114952;28;20509;-66
2024/02/10 02:04:58;;;;;;;12.00;8.40;;;;;;;;;;5115335;28;20446;-66
2024/02/10 02:07:25;;;;;;;9.43;7.23;;;;;;;;;;5115173;28;20449;-66
2024/02/10 02:09:53;;;;;;;8.90;7.83;;;;;;;;;;5115052;28;20441;-66
2024/02/10 02:12:20;;;;;;;8.70;7.10;;;;;;;;;;5115071;28;20448;-66
2024/02/10 02:14:48;;;;;;;10.93;9.30;;;;;;;;;;5114989;28;20516;-66
2024/02/10 02:17:15;;;;;;;10.07;7.70;;;;;;;;;;5114760;28;20499;-66
2024/02/10 02:19:42;;;;;;;10.00;7.90;;;;;;;;;;5114941;28;20528;-66
2024/02/10 02:22:09;;;;;;;10.17;7.80;;;;;;;;;;5114885;28;20465;-66
2024/02/10 02:24:39;;;;;;;8.00;7.03;;;;;;;;;;5114646;28;20481;-66
2024/02/10 02:27:08;;;;;;;10.03;7.53;;;;;;;;;;5114696;28;20450;-66
2024/02/10 02:29:36;;;;;;;8.10;7.40;;;;;;;;;;5114527;28;20491;-66
2024/02/10 02:32:04;;;;;;;8.37;7.10;;;;;;;;;;5114574;28;20438;-66
2024/02/10 02:34:33;;;;;;;7.80;7.00;;;;;;;;;;5114629;28;20441;-66
2024/02/10 02:37:00;;;;;;;7.90;7.10;;;;;;;;;;5114498;28;20793;-66
2024/02/10 02:39:27;;;;;;;8.23;6.30;;;;;;;;;;5114424;28;20437;-66
2024/02/10 02:41:59;;;;;;;7.20;6.60;;;;;;;;;;5114343;28;20441;-66
2024/02/10 02:44:26;;;;;;;8.33;6.43;;;;;;;;;;5114480;28;20542;-66
2024/02/10 02:46:54;;;;;;;10.20;6.90;;;;;;;;;;5114387;28;20532;-66
2024/02/10 02:49:23;;;;;;;9.57;7.13;;;;;;;;;;5114319;28;20473;-66
2024/02/10 02:51:50;;;;;;;7.90;6.53;;;;;;;;;;5114174;28;20441;-66
2024/02/10 02:54:18;;;;;;;6.97;6.30;;;;;;;;;;5114206;28;20877;-66
2024/02/10 02:56:45;;;;;;;7.10;6.50;;;;;;;;;;5113989;28;20442;-66
2024/02/10 02:59:13;;;;;;;6.90;6.13;;;;;;;;;;5114231;28;20929;-66
2024/02/10 03:01:40;;;;;;;6.77;6.10;;;;;;;;;;5114136;28;20536;-66
2024/02/10 03:04:07;;;;;;;7.53;6.10;;;;;;;;;;5113968;28;20488;-66
2024/02/10 03:06:34;;;;;;;6.97;5.60;;;;;;;;;;5114030;28;20528;-66
2024/02/10 03:09:01;;;;;;;8.53;6.70;;;;;;;;;;5113866;28;20874;-66
2024/02/10 03:11:29;;;;;;;6.50;5.97;;;;;;;;;;5113805;28;20524;-66
2024/02/10 03:13:59;;;;;;;6.63;5.50;;;;;;;;;;5113961;28;20805;-66
2024/02/10 03:16:33;;;;;;;5.77;5.17;;;;;;;;;;5113867;28;20855;-66
2024/02/10 03:19:03;;;;;;;6.30;5.70;;;;;;;;;;5113843;28;20437;-66
2024/02/10 03:21:32;;;;;;;7.50;5.33;;;;;;;;;;5113133;28;20808;-66
2024/02/10 03:24:02;;;;;;;5.07;4.57;;;;;;;;;;5113547;28;20908;-66
2024/02/10 03:26:29;;;;;;;5.00;4.43;;;;;;;;;;5113715;28;20453;-66
2024/02/10 03:28:56;;;;;;;5.23;4.83;;;;;;;;;;5113697;28;20446;-66
2024/02/10 03:31:24;;;;;;;6.63;5.50;;;;;;;;;;5113609;28;20529;-66
2024/02/10 03:33:52;;;;;;;4.80;4.40;;;;;;;;;;5113572;28;20477;-66
2024/02/10 03:36:19;;;;;;;5.07;4.57;;;;;;;;;;5113709;28;20513;-66
2024/02/10 03:38:46;;;;;;;4.00;3.70;;;;;;;;;;5113897;28;20520;-66
2024/02/10 03:41:15;;;;;;;4.50;4.10;;;;;;;;;;5113581;28;20440;-66
2024/02/10 03:43:42;;;;;;;4.60;4.20;;;;;;;;;;5113441;28;20561;-66
2024/02/10 03:46:09;;;;;;;4.50;4.03;;;;;;;;;;5113443;28;20536;-66
2024/02/10 03:48:39;;;;;;;4.30;4.00;;;;;;;;;;5113342;28;20821;-66
2024/02/10 03:51:08;;;;;;;5.00;4.60;;;;;;;;;;5113570;28;20929;-66
2024/02/10 03:53:35;;;;;;;4.40;4.10;;;;;;;;;;5113474;28;20446;-66
2024/02/10 03:56:02;;;;;;;3.80;3.60;;;;;;;;;;5113377;28;20494;-66
2024/02/10 03:58:29;;;;;;;4.60;4.30;;;;;;;;;;5113305;28;20450;-66
2024/02/10 04:00:57;;;;;;;4.90;4.50;;;;;;;;;;5113250;28;20503;-66
2024/02/10 04:03:28;;;;;;;4.20;3.87;;;;;;;;;;5113022;28;20550;-66
2024/02/10 04:05:54;;;;;;;4.70;4.30;;;;;;;;;;5113134;28;20937;-66
2024/02/10 04:08:23;;;;;;;4.40;4.10;;;;;;;;;;5113295;28;20533;-66
2024/02/10 04:10:50;;;;;;;3.70;3.40;;;;;;;;;;5113229;28;20814;-66
2024/02/10 04:13:17;;;;;;;3.30;3.10;;;;;;;;;;5113158;28;20445;-66
2024/02/10 04:15:44;;;;;;;4.70;4.30;;;;;;;;;;5113018;28;20449;-66
2024/02/10 04:18:11;;;;;;;4.07;3.80;;;;;;;;;;5113028;28;20868;-66
2024/02/10 04:20:41;;;;;;;3.90;3.50;;;;;;;;;;5113202;28;20540;-66
2024/02/10 04:23:10;;;;;;;4.40;4.10;;;;;;;;;;5113117;28;20562;-66
2024/02/10 04:25:39;;;;;;;4.50;4.10;;;;;;;;;;5113016;28;20450;-66
2024/02/10 04:28:07;;;;;;;4.47;4.00;;;;;;;;;;5112973;28;20814;-66
2024/02/10 04:30:34;;;;;;;3.73;3.43;;;;;;;;;;5112861;28;20450;-66
2024/02/10 04:33:01;;;;;;;4.57;4.17;;;;;;;;;;5115089;28;20509;-66
2024/02/10 04:35:28;;;;;;;4.77;4.37;;;;;;;;;;5116827;28;21013;-66
2024/02/10 04:37:55;;;;;;;4.43;4.03;;;;;;;;;;5116848;28;20533;-66
2024/02/10 04:40:24;;;;;;;4.13;3.83;;;;;;;;;;5116847;28;20808;-66
2024/02/10 04:42:53;;;;;;;4.60;4.30;;;;;;;;;;5116600;28;20445;-66
2024/02/10 04:45:24;;;;;;;4.67;4.27;;;;;;;;;;5116770;28;20481;-66
2024/02/10 04:47:52;;;;;;;3.50;3.30;;;;;;;;;;5116691;28;20456;-66
2024/02/10 04:50:19;;;;;;;4.27;3.97;;;;;;;;;;5116670;28;20445;-66
2024/02/10 04:52:46;;;;;;;4.50;4.20;;;;;;;;;;5116607;28;20451;-66
2024/02/10 04:55:15;;;;;;;6.17;4.37;;;;;;;;;;5116576;28;20877;-66
2024/02/10 04:57:42;;;;;;;4.33;3.93;;;;;;;;;;5116363;28;20490;-66
2024/02/10 05:00:15;;;;;;;4.03;3.83;;;;;;;;;;5116528;28;20442;-66
2024/02/10 05:02:42;;;;;;;4.83;4.43;;;;;;;;;;5116460;28;20442;-66
2024/02/10 05:05:11;;;;;;;4.70;4.40;;;;;;;;;;5116263;28;20488;-66
2024/02/10 05:07:42;;;;;;;6.50;4.37;;;;;;;;;;5116245;28;20456;-66
2024/02/10 05:10:11;;;;;;;4.73;4.30;;;;;;;;;;5116087;28;20456;-66
2024/02/10 05:12:37;;;;;;;4.80;4.40;;;;;;;;;;5116258;28;20445;-66
2024/02/10 05:15:05;;;;;;;4.10;3.80;;;;;;;;;;5116196;28;20537;-66
2024/02/10 05:17:34;;;;;;;4.43;4.03;;;;;;;;;;5116121;28;20434;-66
2024/02/10 05:20:09;;;;;;;4.40;4.10;;;;;;;;;;5115777;28;21031;-66
2024/02/10 05:22:37;;;;;;;5.10;4.70;;;;;;;;;;5115914;28;20494;-66
2024/02/10 05:25:04;;;;;;;5.13;4.73;;;;;;;;;;5116076;28;20494;-66
2024/02/10 05:27:31;;;;;;;5.77;5.27;;;;;;;;;;5116017;28;20456;-66
2024/02/10 05:29:58;;;;;;;5.57;5.07;;;;;;;;;;5115891;28;20448;-66
2024/02/10 05:32:28;;;;;;;4.53;4.23;;;;;;;;;;5115660;28;20522;-66
2024/02/10 05:34:56;;;;;;;5.07;4.67;;;;;;;;;;5115686;28;20454;-66
2024/02/10 05:37:24;;;;;;;5.23;4.80;;;;;;;;;;5115849;28;20441;-66
2024/02/10 05:39:52;;;;;;;4.50;4.07;;;;;;;;;;5115707;28;20442;-66
2024/02/10 05:42:20;;;;;;;4.10;3.90;;;;;;;;;;5115932;28;20537;-66
2024/02/10 05:44:47;;;;;;;3.60;3.40;;;;;;;;;;5114964;28;20484;-66
2024/02/10 05:47:15;;;;;;;3.20;3.00;;;;;;;;;;5115483;28;20528;-66
2024/02/10 05:49:42;;;;;;;3.60;3.40;;;;;;;;;;5115259;28;20441;-66
2024/02/10 05:52:11;;;;;;;3.53;3.33;;;;;;;;;;5115517;28;20453;-66
2024/02/10 05:54:40;;;;;;;4.40;4.10;;;;;;;;;;5115493;28;20889;-66
2024/02/10 05:57:15;;;;;;;3.67;3.37;;;;;;;;;;5115282;28;20499;-66
2024/02/10 05:59:42;;;;;;;4.23;3.87;;;;;;;;;;5115276;28;20498;-66
2024/02/10 06:02:09;;;;;;;3.90;3.60;;;;;;;;;;5115061;28;20442;-66
2024/02/10 06:04:36;;;;;;;3.60;3.40;;;;;;;;;;5115493;28;20576;-66
2024/02/10 06:07:07;;;;;;;3.70;3.40;;;;;;;;;;5115164;28;20448;-66
2024/02/10 06:09:36;;;;;;;3.50;3.30;;;;;;;;;;5115162;28;20445;-66
2024/02/10 06:12:04;;;;;;;3.20;3.00;;;;;;;;;;5114938;28;20989;-66
2024/02/10 06:14:31;;;;;;;4.40;4.10;;;;;;;;;;5114876;28;20804;-66
2024/02/10 06:16:59;;;;;;;3.87;3.67;;;;;;;;;;5115217;28;20529;-66
2024/02/10 06:19:26;;;;;;;4.50;4.13;;;;;;;;;;5114942;28;20445;-66
2024/02/10 06:21:53;;;;;;;4.40;4.07;;;;;;;;;;5114887;28;20775;-66
2024/02/10 06:24:20;;;;;;;4.37;4.07;;;;;;;;;;5114737;28;20475;-66
2024/02/10 06:26:49;;;;;;;4.20;3.90;;;;;;;;;;5114825;28;20920;-66
2024/02/10 06:29:16;;;;;;;4.63;4.13;;;;;;;;;;5114569;28;20510;-66
2024/02/10 06:31:46;;;;;;;4.40;4.10;;;;;;;;;;5114761;28;20850;-66
2024/02/10 06:34:13;;;;;;;4.10;3.80;;;;;;;;;;5114638;28;20464;-66
2024/02/10 06:36:47;;;;;;;4.63;4.23;;;;;;;;;;5114555;28;20481;-66
2024/02/10 06:39:14;;;;;;;4.40;4.00;;;;;;;;;;5114512;28;20442;-66
2024/02/10 06:41:43;;;;;;;4.73;4.33;;;;;;;;;;5114259;28;20950;-66
2024/02/10 06:44:11;;;;;;;4.27;3.97;;;;;;;;;;5114668;28;20480;-66
2024/02/10 06:46:38;;;;;;;4.73;4.23;;;;;;;;;;5114496;28;20528;-66
2024/02/10 06:49:06;;;;;;;4.87;4.57;;;;;;;;;;5114383;28;20449;-66
2024/02/10 06:51:33;;;;;;;4.20;3.93;;;;;;;;;;5114266;28;20442;-66
2024/02/10 06:54:02;;;;;;;5.00;4.70;;;;;;;;;;5114053;28;20524;-66
2024/02/10 06:56:29;;;;;;;6.30;5.23;;;;;;;;;;5113486;28;20441;-66
2024/02/10 06:58:56;;;;;;;4.70;4.33;;;;;;;;;;5114484;28;20532;-66
2024/02/10 07:01:25;;;;;;;6.03;4.43;;;;;;;;;;5114212;28;20813;-66
2024/02/10 07:03:52;;;;;;;7.93;5.67;;;;;;;;;;5113823;28;20997;-66
2024/02/10 07:06:26;;;;;;;5.90;5.20;;;;;;;;;;5114009;28;20447;-66
2024/02/10 07:08:53;;;;;;;6.17;5.67;;;;;;;;;;5113775;28;20445;-66
2024/02/10 07:11:20;;;;;;;6.70;4.80;;;;;;;;;;5114034;28;20541;-66
2024/02/10 07:13:47;;;;;;;6.00;5.40;;;;;;;;;;5113948;28;20444;-66
2024/02/10 07:16:14;;;;;;;5.97;5.47;;;;;;;;;;5113801;28;20532;-66
2024/02/10 07:18:47;;;;;;;6.20;5.70;;;;;;;;;;5113763;28;20819;-66
2024/02/10 07:21:15;;;;;;;5.03;4.70;;;;;;;;;;5113648;28;20844;-66
2024/02/10 07:23:42;;;;;;;6.43;5.90;;;;;;;;;;5113839;28;20445;-67
2024/02/10 07:26:09;;;;;;;5.97;5.30;;;;;;;;;;5113732;28;20840;-67
2024/02/10 07:28:36;;;;;;;6.50;5.90;;;;;;;;;;5113668;28;20453;-66
2024/02/10 07:31:03;;;;;;;6.77;6.10;;;;;;;;;;5113633;28;20446;-66
2024/02/10 07:33:31;;;;;;;6.30;5.70;;;;;;;;;;5113395;28;21095;-66
2024/02/10 07:36:00;;;;;;;6.97;5.80;;;;;;;;;;5113567;28;20488;-67
2024/02/10 07:38:27;;;;;;;5.53;5.13;;;;;;;;;;5113620;28;20442;-67
2024/02/10 07:40:55;;;;;;;7.90;6.70;;;;;;;;;;5113626;28;20882;-66
2024/02/10 07:43:22;;;;;;;6.07;5.57;;;;;;;;;;5113374;28;20983;-66
2024/02/10 07:45:52;;;;;;;7.13;5.60;;;;;;;;;;5113310;28;20520;-66
2024/02/10 07:48:19;;;;;;;5.73;5.30;;;;;;;;;;5113332;28;20740;-67
2024/02/10 07:50:46;;;;;;;5.37;4.87;;;;;;;;;;5113516;28;20477;-67
2024/02/10 07:53:14;;;;;;;6.30;5.70;;;;;;;;;;5113414;28;20443;-66
2024/02/10 07:55:44;;;;;;;6.80;6.20;;;;;;;;;;5113404;28;20438;-66
2024/02/10 07:58:14;;;;;;;8.33;6.60;;;;;;;;;;5113367;28;20438;-66
2024/02/10 08:00:41;;;;;;;6.17;5.60;;;;;;;;;;5113256;28;20477;-66
2024/02/10 08:03:08;;;;;;;6.17;5.67;;;;;;;;;;5113165;28;20534;-66
2024/02/10 08:05:37;;;;;;;5.80;5.40;;;;;;;;;;5113192;28;20477;-66
2024/02/10 08:08:09;;;;;;;6.93;6.33;;;;;;;;;;5117494;28;20471;-66
2024/02/10 08:10:37;;;;;;;6.60;6.10;;;;;;;;;;5117387;28;20518;-66
2024/02/10 08:13:04;;;;;;;7.03;6.43;;;;;;;;;;5117248;28;20441;-66
2024/02/10 08:15:32;;;;;;;8.40;7.60;;;;;;;;;;5117115;28;20441;-66
2024/02/10 08:18:08;;;;;;;8.80;6.80;;;;;;;;;;5117370;28;20452;-66
2024/02/10 08:20:35;;;;;;;9.27;8.37;;;;;;;;;;5117266;28;20452;-66
2024/02/10 08:23:02;;;;;;;9.40;8.27;;;;;;;;;;5117176;28;20477;-66
2024/02/10 08:25:29;;;;;;;14.30;9.10;;;;;;;;;;5117049;28;20561;-66
2024/02/10 08:28:00;;;;;;;9.10;8.13;;;;;;;;;;5116962;28;20851;-67
2024/02/10 08:30:29;;;;;;;7.90;7.10;;;;;;;;;;5117362;28;20522;-66
2024/02/10 08:32:58;;;;;;;8.60;7.10;;;;;;;;;;5116817;28;20467;-66
2024/02/10 08:35:27;;;;;;;8.23;6.97;;;;;;;;;;5116795;28;20453;-66
2024/02/10 08:37:54;;;;;;;6.30;5.80;;;;;;;;;;5116898;28;20468;-67
2024/02/10 08:40:21;;;;;;;7.87;5.63;;;;;;;;;;5116692;28;20536;-66
2024/02/10 08:42:48;;;;;;;7.43;6.57;;;;;;;;;;5116677;28;20441;-66
2024/02/10 08:45:16;;;;;;;6.63;6.07;;;;;;;;;;5116505;28;20485;-67
2024/02/10 08:47:43;;;;;;;7.50;6.80;;;;;;;;;;5116818;28;20901;-66
2024/02/10 08:50:12;;;;;;;8.73;6.40;;;;;;;;;;5116669;28;20529;-66
2024/02/10 08:52:39;;;;;;;6.77;6.17;;;;;;;;;;5116973;28;20441;-66
2024/02/10 08:55:07;;;;;;;6.83;6.20;;;;;;;;;;5116441;28;20894;-67
2024/02/10 08:57:35;;;;;;;8.53;7.73;;;;;;;;;;5116368;28;20996;-67
2024/02/10 09:00:03;;;;;;;6.50;5.53;;;;;;;;;;5116505;28;20847;-67
2024/02/10 09:02:32;;;;;;;6.70;6.10;;;;;;;;;;5116387;28;20956;-67
2024/02/10 09:05:00;;;;;;;6.53;5.83;;;;;;;;;;5116242;28;20484;-67
2024/02/10 09:07:27;;;;;;;9.07;5.77;;;;;;;;;;5116195;28;20532;-66
2024/02/10 09:09:54;;;;;;;6.13;5.53;;;;;;;;;;5116386;28;20528;-67
2024/02/10 09:12:21;;;;;;;6.23;5.20;;;;;;;;;;5116280;28;20551;-66
2024/02/10 09:14:48;;;;;;;6.00;5.40;;;;;;;;;;5116123;28;20533;-66
2024/02/10 09:17:15;;;;;;;6.37;5.67;;;;;;;;;;5115833;28;20441;-66
2024/02/10 09:19:43;;;;;;;5.70;5.20;;;;;;;;;;5115516;28;20541;-66
2024/02/10 09:22:10;;;;;;;6.23;4.93;;;;;;;;;;5115818;28;20555;-66
2024/02/10 09:24:39;;;;;;;5.80;5.30;;;;;;;;;;5115988;28;20441;-66
2024/02/10 09:27:08;;;;;;;5.77;5.27;;;;;;;;;;5115931;28;20512;-66
2024/02/10 09:29:36;;;;;;;5.30;4.80;;;;;;;;;;5115805;28;20446;-67
2024/02/10 09:32:02;;;;;;;5.33;4.90;;;;;;;;;;5115579;28;20448;-66
2024/02/10 09:34:29;;;;;;;4.57;4.23;;;;;;;;;;5115612;28;20536;-67
2024/02/10 09:36:59;;;;;;;4.60;4.23;;;;;;;;;;5115524;28;20525;-66
2024/02/10 09:39:26;;;;;;;8.23;4.40;;;;;;;;;;5115673;28;20532;-67
2024/02/10 09:41:56;;;;;;;5.03;4.63;;;;;;;;;;5115614;28;20449;-66
2024/02/10 09:44:23;;;;;;;4.40;4.07;;;;;;;;;;5115522;28;20800;-66
2024/02/10 09:46:51;;;;;;;4.10;3.43;;;;;;;;;;5115436;28;20481;-66
2024/02/10 09:49:18;;;;;;;5.40;5.00;;;;;;;;;;5115286;28;20457;-66
2024/02/10 09:51:45;;;;;;;7.80;3.87;;;;;;;;;;5115300;28;20487;-66
2024/02/10 09:54:14;;;;;;;4.37;3.97;;;;;;;;;;5115142;28;20524;-66
2024/02/10 09:56:41;;;;;;;4.40;4.10;;;;;;;;;;5115368;28;20519;-67
2024/02/10 09:59:11;;;;;;;4.17;3.87;;;;;;;;;;5115242;28;20851;-67
2024/02/10 10:01:38;;;;;;;4.10;3.80;;;;;;;;;;5115072;28;20805;-67
2024/02/10 10:04:09;;;;;;;3.80;3.50;;;;;;;;;;5115422;28;20438;-66
2024/02/10 10:06:39;;;;;;;4.03;3.70;;;;;;;;;;5115098;28;20493;-66
2024/02/10 10:09:07;;;;;;;5.40;4.00;;;;;;;;;;5115121;28;20514;-67
2024/02/10 10:11:38;;;;;;;4.00;3.70;;;;;;;;;;5115101;28;20899;-66
2024/02/10 10:14:07;;;;;;;5.87;4.17;;;;;;;;;;5114905;28;20444;-66
2024/02/10 10:16:33;;;;;;;4.13;3.63;;;;;;;;;;5115051;28;20441;-67
2024/02/10 10:19:01;;;;;;;5.93;3.90;;;;;;;;;;5114920;28;20448;-67
2024/02/10 10:21:30;;;;;;;4.77;3.90;;;;;;;;;;5114785;28;20446;-66
2024/02/10 10:23:57;;;;;;;3.70;3.40;;;;;;;;;;5114763;28;20477;-67
2024/02/10 10:26:24;;;;;;;3.90;2.83;;;;;;;;;;5114559;28;20477;-67
2024/02/10 10:28:52;;;;;;;5.23;4.53;;;;;;;;;;5114448;28;20533;-67
2024/02/10 10:31:19;;;;;;;3.30;3.10;;;;;;;;;;5114764;28;20528;-67
2024/02/10 10:33:48;;;;;;;2.90;2.70;;;;;;;;;;5114289;28;21060;-67
2024/02/10 10:36:15;;;;;;;3.73;3.10;;;;;;;;;;5114553;28;20437;-67
2024/02/10 10:38:44;;;;;;;3.10;2.90;;;;;;;;;;5114540;28;20449;-66
2024/02/10 10:41:11;;;;;;;3.93;3.30;;;;;;;;;;5114388;28;20446;-67
2024/02/10 10:43:38;;;;;;;3.80;3.37;;;;;;;;;;5114540;28;20618;-67
2024/02/10 10:46:07;;;;;;;3.27;2.97;;;;;;;;;;5114350;28;20567;-67
2024/02/10 10:48:34;;;;;;;3.07;2.87;;;;;;;;;;5114297;28;20838;-67
2024/02/10 10:51:06;;;;;;;3.97;3.03;;;;;;;;;;5114313;28;20442;-67
2024/02/10 10:53:36;;;;;;;2.30;2.20;;;;;;;;;;5114421;28;20444;-67
2024/02/10 10:56:05;;;;;;;3.17;2.97;;;;;;;;;;5114346;28;20524;-67
2024/02/10 10:58:38;;;;;;;3.50;3.20;;;;;;;;;;5114237;28;20473;-67
2024/02/10 11:01:08;;;;;;;3.50;2.90;;;;;;;;;;5114140;28;20486;-67
2024/02/10 11:03:35;;;;;;;2.90;2.40;;;;;;;;;;5113958;28;20529;-67
2024/02/10 11:06:10;;;;;;;2.87;2.43;;;;;;;;;;5113577;28;20571;-67
2024/02/10 11:08:40;;;;;;;2.27;2.17;;;;;;;;;;5114071;28;20429;-67
2024/02/10 11:11:08;;;;;;;2.33;2.23;;;;;;;;;;5113780;28;20449;-67
2024/02/10 11:13:35;;;;;;;2.70;2.50;;;;;;;;;;5113910;28;20445;-67
2024/02/10 11:16:12;;;;;;;1.93;1.83;;;;;;;;;;5113828;28;20442;-67
2024/02/10 11:18:39;;;;;;;2.20;2.10;;;;;;;;;;5113674;28;21008;-67
2024/02/10 11:21:09;;;;;;;5.40;2.50;;;;;;;;;;5113566;28;20445;-67
2024/02/10 11:23:38;;;;;;;3.00;2.60;;;;;;;;;;5113803;28;20473;-67
2024/02/10 11:26:07;;;;;;;2.13;2.00;;;;;;;;;;5113564;28;20485;-67
2024/02/10 11:28:37;;;;;;;4.67;2.17;;;;;;;;;;5113646;28;20524;-67
2024/02/10 11:31:10;;;;;;;2.50;2.00;;;;;;;;;;5113416;28;20952;-67
2024/02/10 11:33:39;;;;;;;2.43;2.33;;;;;;;;;;5113535;28;20473;-67
2024/02/10 11:36:10;;;;;;;2.03;1.93;;;;;;;;;;5113537;28;20477;-67
2024/02/10 11:38:38;;;;;;;2.07;1.97;;;;;;;;;;5113486;28;20545;-67
2024/02/10 11:41:05;;;;;;;2.37;2.17;;;;;;;;;;5112930;28;20525;-67
2024/02/10 11:43:33;;;;;;;2.77;2.57;;;;;;;;;;5113367;28;20938;-67
2024/02/10 11:46:00;;;;;;;3.23;2.23;;;;;;;;;;5113106;28;20473;-67
2024/02/10 11:48:27;;;;;;;4.63;3.77;;;;;;;;;;5113098;28;20536;-67
2024/02/10 11:50:55;;;;;;;2.73;2.53;;;;;;;;;;5113383;28;20537;-67
2024/02/10 11:53:22;;;;;;;2.67;2.47;;;;;;;;;;5113372;28;20540;-67
2024/02/10 11:55:49;;;;;;;3.13;2.13;;;;;;;;;;5113215;28;20449;-67
2024/02/10 11:58:18;;;;;;;2.27;2.17;;;;;;;;;;5113051;28;20448;-67
2024/02/10 12:00:45;;;;;;;4.13;2.33;;;;;;;;;;5113513;28;20533;-67
2024/02/10 12:03:15;;;;;;;3.73;2.43;;;;;;;;;;5113463;28;20877;-67
2024/02/10 12:05:42;;;;;;;2.90;2.57;;;;;;;;;;5113193;28;20568;-67
2024/02/10 12:08:11;;;;;;;2.10;2.00;;;;;;;;;;5113121;28;20470;-67
2024/02/10 12:10:38;;;;;;;2.70;2.50;;;;;;;;;;5113183;28;20449;-67
2024/02/10 12:13:06;;;;;;;2.87;2.30;;;;;;;;;;5113002;28;20449;-67
2024/02/10 12:15:33;;;;;;;2.40;2.20;;;;;;;;;;5113213;28;20472;-67
2024/02/10 12:18:00;;;;;;;2.53;2.33;;;;;;;;;;5113217;28;20489;-68
2024/02/10 12:20:27;;;;;;;3.70;2.13;;;;;;;;;;5113063;28;20507;-67
2024/02/10 12:22:54;;;;;;;2.03;1.93;;;;;;;;;;5113098;28;20445;-67
2024/02/10 12:25:22;;;;;;;2.40;2.30;;;;;;;;;;5112947;28;20498;-68
2024/02/10 12:27:50;;;;;;;3.67;3.37;;;;;;;;;;5113109;28;20968;-67
2024/02/10 12:30:18;;;;;;;3.03;2.83;;;;;;;;;;5113021;28;20541;-67
2024/02/10 12:32:45;;;;;;;2.53;1.60;;;;;;;;;;5112796;28;20473;-67
2024/02/10 12:35:16;;;;;;;1.90;1.80;;;;;;;;;;5113062;28;20448;-67
2024/02/10 12:37:44;;;;;;;1.90;1.80;;;;;;;;;;5112915;28;20500;-67
2024/02/10 12:40:12;;;;;;;2.10;2.00;;;;;;;;;;5113084;28;20487;-67
2024/02/10 12:42:42;;;;;;;1.97;1.87;;;;;;;;;;5112928;28;20437;-67
2024/02/10 12:45:10;;;;;;;3.67;2.40;;;;;;;;;;5113061;28;20514;-67
2024/02/10 12:47:37;;;;;;;2.13;1.70;;;;;;;;;;5112609;28;21017;-67
2024/02/10 12:50:07;;;;;;;2.50;2.30;;;;;;;;;;5112764;28;20502;-67
2024/02/10 12:52:34;;;;;;;2.70;1.60;;;;;;;;;;5112668;28;20937;-67
2024/02/10 12:55:01;;;;;;;2.27;2.17;;;;;;;;;;5116439;28;20453;-67
2024/02/10 12:57:30;;;;;;;2.03;1.83;;;;;;;;;;5115685;28;20531;-67
2024/02/10 12:59:58;;;;;;;2.73;1.93;;;;;;;;;;5116528;28;20665;-67
2024/02/10 13:02:26;;;;;;;2.00;1.80;;;;;;;;;;5116413;28;20870;-67
2024/02/10 13:04:54;;;;;;;1.80;1.70;;;;;;;;;;5116348;28;20445;-67
2024/02/10 13:07:21;;;;;;;2.00;1.90;;;;;;;;;;5116341;28;20531;-67
2024/02/10 13:09:48;;;;;;;1.70;1.60;;;;;;;;;;5116412;28;20982;-67
2024/02/10 13:12:15;;;;;;;2.10;1.90;;;;;;;;;;5116258;28;20442;-66
2024/02/10 13:14:42;;;;;;;1.40;1.30;;;;;;;;;;5115993;28;20450;-66
2024/02/10 13:17:11;;;;;;;1.77;1.27;;;;;;;;;;5115882;28;20949;-66
2024/02/10 13:19:38;;;;;;;1.40;1.30;;;;;;;;;;5115793;28;20442;-66
2024/02/10 13:22:05;;;;;;;2.17;2.00;;;;;;;;;;5116208;28;20441;-68
2024/02/10 13:24:32;;;;;;;1.93;1.73;;;;;;;;;;5116225;28;20536;-66
2024/02/10 13:26:59;;;;;;;2.00;1.80;;;;;;;;;;5115936;28;20568;-66
2024/02/10 13:29:29;;;;;;;4.00;2.00;;;;;;;;;;5115852;28;20540;-66
2024/02/10 13:31:57;;;;;;;1.57;1.17;;;;;;;;;;5115510;28;20442;-66
2024/02/10 13:34:25;;;;;;;1.33;1.00;;;;;;;;;;5115644;28;20786;-66
2024/02/10 14:00:57;;;;;;;1.20;1.10;;;;;;;;;;5115351;28;20426;-66
2024/02/10 14:03:30;;;;;;;4.13;1.63;;;;;;;;;;5115089;28;20599;-66
2024/02/10 14:06:08;;;;;;;1.63;1.53;;;;;;;;;;5115015;28;20454;-66
2024/02/10 14:08:41;;;;;;;2.63;1.77;;;;;;;;;;5115226;28;20441;-66
2024/02/10 14:11:10;;;;;;;2.23;1.47;;;;;;;;;;5115082;28;20458;-66
2024/02/10 14:13:41;;;;;;;1.90;1.80;;;;;;;;;;5114845;28;20533;-66
2024/02/10 14:16:09;;;;;;;1.30;1.20;;;;;;;;;;5114861;28;20532;-66
2024/02/10 14:18:36;;;;;;;1.67;1.57;;;;;;;;;;5114931;28;20469;-66
2024/02/10 14:21:11;;;;;;;1.80;1.70;;;;;;;;;;5114943;28;20441;-66
2024/02/10 14:23:39;;;;;;;2.00;1.60;;;;;;;;;;5114882;28;20446;-66
2024/02/10 14:26:14;;;;;;;1.97;1.87;;;;;;;;;;5114631;28;20546;-66
2024/02/10 14:28:50;;;;;;;1.60;1.50;;;;;;;;;;5114795;28;20473;-66
2024/02/10 14:31:18;;;;;;;1.53;1.43;;;;;;;;;;5114710;28;20445;-66
2024/02/10 14:33:46;;;;;;;2.20;2.00;;;;;;;;;;5114536;28;20474;-66
2024/02/10 14:36:37;;;;;;;1.90;1.80;;;;;;;;;;5114612;28;20473;-66
2024/02/10 14:39:08;;;;;;;4.03;2.20;;;;;;;;;;5114623;28;20868;-66
2024/02/10 14:41:38;;;;;;;1.90;1.80;;;;;;;;;;5114584;28;21004;-66
2024/02/10 14:44:05;;;;;;;4.30;4.00;;;;;;;;;;5114346;28;20448;-66
2024/02/10 14:46:32;;;;;;;2.93;2.30;;;;;;;;;;5114210;28;20477;-66
2024/02/10 14:48:59;;;;;;;1.80;1.70;;;;;;;;;;5114173;28;20442;-66
2024/02/10 14:51:28;;;;;;;3.63;1.90;;;;;;;;;;5114158;28;20532;-66
2024/02/10 14:53:55;;;;;;;2.43;2.20;;;;;;;;;;5114427;28;20537;-65
2024/02/10 14:56:23;;;;;;;1.87;1.53;;;;;;;;;;5114253;28;20537;-66
2024/02/10 14:58:51;;;;;;;2.37;2.20;;;;;;;;;;5114100;28;20468;-66
2024/02/10 15:01:18;;;;;;;2.40;2.20;;;;;;;;;;5114064;28;20449;-65
2024/02/10 15:03:45;;;;;;;2.00;1.90;;;;;;;;;;5113854;28;20878;-65
2024/02/10 15:06:18;;;;;;;1.90;1.80;;;;;;;;;;5113926;28;20442;-66
2024/02/10 15:08:49;;;;;;;2.57;2.40;;;;;;;;;;5114063;28;20446;-66
2024/02/10 15:11:16;;;;;;;2.70;2.50;;;;;;;;;;5113980;28;20446;-65